sensor_id;sensor_type;location;lat;lon;timestamp;P1;durP1;ratioP1;P2;durP2;ratioP2
20306;SDS011;10312;52.434;13.206;2022-08-16T00:00:23;15.35;;;11.93;;
20306;SDS011;10312;52.434;13.206;2022-08-16T00:02:51;14.77;;;11.73;;
20306;SDS011;10312;52.434;13.206;2022-08-16T00:05:19;15.48;;;12.25;;
20306;SDS011;10312;52.434;13.206;2022-08-16T00:07:48;14.32;;;12.07;;
20306;SDS011;10312;52.434;13.206;2022-08-16T00:10:22;17.30;;;13.15;;
20306;SDS011;10312;52.434;13.206;2022-08-16T00:12:50;18.88;;;12.73;;
20306;SDS011;10312;52.434;13.206;2022-08-16T00:15:19;14.98;;;12.23;;
20306;SDS011;10312;52.434;13.206;2022-08-16T00:17:49;14.63;;;12.13;;
20306;SDS011;10312;52.434;13.206;2022-08-16T00:20:22;15.30;;;11.98;;
20306;SDS011;10312;52.434;13.206;2022-08-16T00:22:50;15.50;;;12.68;;
20306;SDS011;10312;52.434;13.206;2022-08-16T00:25:19;15.25;;;12.43;;
20306;SDS011;10312;52.434;13.206;2022-08-16T00:28:07;13.65;;;12.18;;
20306;SDS011;10312;52.434;13.206;2022-08-16T00:30:36;15.73;;;13.02;;
20306;SDS011;10312;52.434;13.206;2022-08-16T00:33:04;17.83;;;13.20;;
20306;SDS011;10312;52.434;13.206;2022-08-16T00:35:34;14.50;;;12.18;;
20306;SDS011;10312;52.434;13.206;2022-08-16T00:38:03;15.15;;;12.65;;
20306;SDS011;10312;52.434;13.206;2022-08-16T00:40:51;15.60;;;13.23;;
20306;SDS011;10312;52.434;13.206;2022-08-16T00:43:21;14.57;;;12.15;;
20306;SDS011;10312;52.434;13.206;2022-08-16T00:46:20;16.92;;;13.23;;
20306;SDS011;10312;52.434;13.206;2022-08-16T00:49:07;14.52;;;13.02;;
20306;SDS011;10312;52.434;13.206;2022-08-16T00:51:45;16.73;;;13.20;;
20306;SDS011;10312;52.434;13.206;2022-08-16T00:54:22;18.20;;;14.43;;
20306;SDS011;10312;52.434;13.206;2022-08-16T00:56:50;15.45;;;12.77;;
20306;SDS011;10312;52.434;13.206;2022-08-16T00:59:25;16.00;;;13.05;;
20306;SDS011;10312;52.434;13.206;2022-08-16T01:01:52;15.63;;;12.75;;
20306;SDS011;10312;52.434;13.206;2022-08-16T01:04:21;16.42;;;14.10;;
20306;SDS011;10312;52.434;13.206;2022-08-16T01:06:56;16.50;;;13.88;;
20306;SDS011;10312;52.434;13.206;2022-08-16T01:09:28;17.67;;;14.45;;
20306;SDS011;10312;52.434;13.206;2022-08-16T01:12:00;18.77;;;14.63;;
20306;SDS011;10312;52.434;13.206;2022-08-16T01:14:29;17.05;;;13.48;;
20306;SDS011;10312;52.434;13.206;2022-08-16T01:16:58;16.67;;;13.85;;
20306;SDS011;10312;52.434;13.206;2022-08-16T01:19:30;17.50;;;14.00;;
20306;SDS011;10312;52.434;13.206;2022-08-16T01:22:02;15.98;;;13.65;;
20306;SDS011;10312;52.434;13.206;2022-08-16T01:24:57;17.95;;;14.10;;
20306;SDS011;10312;52.434;13.206;2022-08-16T01:27:34;18.08;;;14.32;;
20306;SDS011;10312;52.434;13.206;2022-08-16T01:30:06;16.80;;;13.45;;
20306;SDS011;10312;52.434;13.206;2022-08-16T01:32:54;18.42;;;13.32;;
20306;SDS011;10312;52.434;13.206;2022-08-16T01:39:06;18.48;;;13.50;;
20306;SDS011;10312;52.434;13.206;2022-08-16T01:41:25;19.38;;;13.93;;
20306;SDS011;10312;52.434;13.206;2022-08-16T01:43:57;17.83;;;13.77;;
20306;SDS011;10312;52.434;13.206;2022-08-16T01:49:15;17.15;;;13.82;;
20306;SDS011;10312;52.434;13.206;2022-08-16T01:51:56;18.00;;;15.27;;
20306;SDS011;10312;52.434;13.206;2022-08-16T01:54:52;24.25;;;14.32;;
20306;SDS011;10312;52.434;13.206;2022-08-16T01:57:19;18.25;;;15.15;;
20306;SDS011;10312;52.434;13.206;2022-08-16T01:59:50;20.02;;;14.73;;
20306;SDS011;10312;52.434;13.206;2022-08-16T02:02:20;20.05;;;14.60;;
20306;SDS011;10312;52.434;13.206;2022-08-16T02:04:54;17.77;;;14.48;;
20306;SDS011;10312;52.434;13.206;2022-08-16T02:07:23;18.40;;;14.93;;
20306;SDS011;10312;52.434;13.206;2022-08-16T02:09:51;17.73;;;14.70;;
20306;SDS011;10312;52.434;13.206;2022-08-16T02:12:33;15.63;;;13.57;;
20306;SDS011;10312;52.434;13.206;2022-08-16T02:15:18;17.92;;;14.32;;
20306;SDS011;10312;52.434;13.206;2022-08-16T02:17:50;16.58;;;14.18;;
20306;SDS011;10312;52.434;13.206;2022-08-16T02:20:18;16.52;;;14.15;;
20306;SDS011;10312;52.434;13.206;2022-08-16T02:22:51;18.10;;;15.23;;
20306;SDS011;10312;52.434;13.206;2022-08-16T02:25:20;16.42;;;14.50;;
20306;SDS011;10312;52.434;13.206;2022-08-16T02:27:48;16.52;;;14.40;;
20306;SDS011;10312;52.434;13.206;2022-08-16T02:30:18;16.02;;;13.73;;
20306;SDS011;10312;52.434;13.206;2022-08-16T02:33:08;19.98;;;15.68;;
20306;SDS011;10312;52.434;13.206;2022-08-16T02:35:36;17.25;;;14.38;;
20306;SDS011;10312;52.434;13.206;2022-08-16T02:38:25;17.23;;;14.68;;
20306;SDS011;10312;52.434;13.206;2022-08-16T02:40:53;18.45;;;14.60;;
20306;SDS011;10312;52.434;13.206;2022-08-16T02:43:22;16.38;;;14.27;;
20306;SDS011;10312;52.434;13.206;2022-08-16T02:45:53;17.30;;;13.90;;
20306;SDS011;10312;52.434;13.206;2022-08-16T02:48:21;18.35;;;14.70;;
20306;SDS011;10312;52.434;13.206;2022-08-16T02:50:56;17.27;;;14.63;;
20306;SDS011;10312;52.434;13.206;2022-08-16T02:53:37;17.15;;;14.80;;
20306;SDS011;10312;52.434;13.206;2022-08-16T02:56:09;17.77;;;14.48;;
20306;SDS011;10312;52.434;13.206;2022-08-16T02:58:41;17.13;;;14.50;;
20306;SDS011;10312;52.434;13.206;2022-08-16T03:01:10;19.67;;;14.20;;
20306;SDS011;10312;52.434;13.206;2022-08-16T03:04:00;19.85;;;16.25;;
20306;SDS011;10312;52.434;13.206;2022-08-16T03:06:48;17.42;;;14.82;;
20306;SDS011;10312;52.434;13.206;2022-08-16T03:09:22;18.48;;;15.05;;
20306;SDS011;10312;52.434;13.206;2022-08-16T03:11:52;17.70;;;14.15;;
20306;SDS011;10312;52.434;13.206;2022-08-16T03:14:20;17.85;;;14.23;;
20306;SDS011;10312;52.434;13.206;2022-08-16T03:16:53;17.90;;;14.38;;
20306;SDS011;10312;52.434;13.206;2022-08-16T03:19:28;16.38;;;14.60;;
20306;SDS011;10312;52.434;13.206;2022-08-16T03:22:17;20.45;;;14.38;;
20306;SDS011;10312;52.434;13.206;2022-08-16T03:25:01;17.77;;;14.43;;
20306;SDS011;10312;52.434;13.206;2022-08-16T03:27:33;17.00;;;14.15;;
20306;SDS011;10312;52.434;13.206;2022-08-16T03:30:11;16.77;;;14.27;;
20306;SDS011;10312;52.434;13.206;2022-08-16T03:32:51;18.13;;;14.48;;
20306;SDS011;10312;52.434;13.206;2022-08-16T03:35:22;16.63;;;14.13;;
20306;SDS011;10312;52.434;13.206;2022-08-16T03:38:00;17.25;;;14.40;;
20306;SDS011;10312;52.434;13.206;2022-08-16T03:40:50;17.90;;;14.77;;
20306;SDS011;10312;52.434;13.206;2022-08-16T03:43:21;20.25;;;14.98;;
20306;SDS011;10312;52.434;13.206;2022-08-16T03:46:12;18.40;;;15.07;;
20306;SDS011;10312;52.434;13.206;2022-08-16T03:48:59;16.95;;;13.77;;
20306;SDS011;10312;52.434;13.206;2022-08-16T03:51:27;17.52;;;14.68;;
20306;SDS011;10312;52.434;13.206;2022-08-16T03:54:00;19.23;;;14.63;;
20306;SDS011;10312;52.434;13.206;2022-08-16T03:56:29;18.85;;;14.25;;
20306;SDS011;10312;52.434;13.206;2022-08-16T03:58:58;17.02;;;14.77;;
20306;SDS011;10312;52.434;13.206;2022-08-16T04:01:31;17.27;;;14.45;;
20306;SDS011;10312;52.434;13.206;2022-08-16T04:03:59;16.50;;;14.43;;
20306;SDS011;10312;52.434;13.206;2022-08-16T04:06:26;21.52;;;14.82;;
20306;SDS011;10312;52.434;13.206;2022-08-16T04:08:53;17.75;;;13.93;;
20306;SDS011;10312;52.434;13.206;2022-08-16T04:11:20;17.10;;;14.95;;
20306;SDS011;10312;52.434;13.206;2022-08-16T04:13:49;19.52;;;15.00;;
20306;SDS011;10312;52.434;13.206;2022-08-16T04:16:38;18.50;;;15.02;;
20306;SDS011;10312;52.434;13.206;2022-08-16T04:19:22;20.23;;;15.52;;
20306;SDS011;10312;52.434;13.206;2022-08-16T04:21:57;17.17;;;14.52;;
20306;SDS011;10312;52.434;13.206;2022-08-16T04:24:29;20.45;;;15.35;;
20306;SDS011;10312;52.434;13.206;2022-08-16T04:26:56;17.35;;;13.60;;
20306;SDS011;10312;52.434;13.206;2022-08-16T04:29:24;17.33;;;14.95;;
20306;SDS011;10312;52.434;13.206;2022-08-16T04:32:12;17.13;;;14.57;;
20306;SDS011;10312;52.434;13.206;2022-08-16T04:34:41;18.40;;;14.85;;
20306;SDS011;10312;52.434;13.206;2022-08-16T04:37:10;22.00;;;15.93;;
20306;SDS011;10312;52.434;13.206;2022-08-16T04:39:41;19.23;;;16.08;;
20306;SDS011;10312;52.434;13.206;2022-08-16T04:42:22;17.38;;;15.18;;
20306;SDS011;10312;52.434;13.206;2022-08-16T04:44:52;16.90;;;14.63;;
20306;SDS011;10312;52.434;13.206;2022-08-16T04:47:26;22.23;;;14.90;;
20306;SDS011;10312;52.434;13.206;2022-08-16T04:50:05;20.35;;;15.40;;
20306;SDS011;10312;52.434;13.206;2022-08-16T04:53:00;19.17;;;15.73;;
20306;SDS011;10312;52.434;13.206;2022-08-16T04:55:31;19.23;;;15.40;;
20306;SDS011;10312;52.434;13.206;2022-08-16T04:58:04;19.80;;;16.13;;
20306;SDS011;10312;52.434;13.206;2022-08-16T05:00:52;18.48;;;15.68;;
20306;SDS011;10312;52.434;13.206;2022-08-16T05:03:21;19.38;;;16.38;;
20306;SDS011;10312;52.434;13.206;2022-08-16T05:05:51;19.42;;;16.60;;
20306;SDS011;10312;52.434;13.206;2022-08-16T05:08:28;23.63;;;17.90;;
20306;SDS011;10312;52.434;13.206;2022-08-16T05:11:05;20.80;;;17.05;;
20306;SDS011;10312;52.434;13.206;2022-08-16T05:13:35;23.98;;;19.10;;
20306;SDS011;10312;52.434;13.206;2022-08-16T05:16:11;24.73;;;18.35;;
20306;SDS011;10312;52.434;13.206;2022-08-16T05:18:50;23.60;;;18.95;;
20306;SDS011;10312;52.434;13.206;2022-08-16T05:21:18;23.80;;;17.50;;
20306;SDS011;10312;52.434;13.206;2022-08-16T05:23:52;22.05;;;19.30;;
20306;SDS011;10312;52.434;13.206;2022-08-16T05:26:25;23.05;;;18.20;;
20306;SDS011;10312;52.434;13.206;2022-08-16T05:28:54;23.13;;;18.33;;
20306;SDS011;10312;52.434;13.206;2022-08-16T05:31:26;24.05;;;19.30;;
20306;SDS011;10312;52.434;13.206;2022-08-16T05:33:55;24.75;;;19.83;;
20306;SDS011;10312;52.434;13.206;2022-08-16T05:36:23;22.63;;;19.02;;
20306;SDS011;10312;52.434;13.206;2022-08-16T05:39:05;23.02;;;18.02;;
20306;SDS011;10312;52.434;13.206;2022-08-16T05:41:35;24.08;;;18.52;;
20306;SDS011;10312;52.434;13.206;2022-08-16T05:44:11;25.95;;;19.55;;
20306;SDS011;10312;52.434;13.206;2022-08-16T05:46:52;24.50;;;18.98;;
20306;SDS011;10312;52.434;13.206;2022-08-16T05:49:22;24.15;;;19.40;;
20306;SDS011;10312;52.434;13.206;2022-08-16T05:51:55;22.67;;;19.60;;
20306;SDS011;10312;52.434;13.206;2022-08-16T05:54:23;22.58;;;18.40;;
20306;SDS011;10312;52.434;13.206;2022-08-16T05:56:54;24.00;;;19.75;;
20306;SDS011;10312;52.434;13.206;2022-08-16T05:59:23;23.05;;;19.60;;
20306;SDS011;10312;52.434;13.206;2022-08-16T06:01:53;22.63;;;18.90;;
20306;SDS011;10312;52.434;13.206;2022-08-16T06:04:25;23.48;;;19.25;;
20306;SDS011;10312;52.434;13.206;2022-08-16T06:07:04;25.25;;;18.38;;
20306;SDS011;10312;52.434;13.206;2022-08-16T06:09:37;25.17;;;19.58;;
20306;SDS011;10312;52.434;13.206;2022-08-16T06:12:10;22.73;;;19.23;;
20306;SDS011;10312;52.434;13.206;2022-08-16T06:14:53;23.63;;;19.92;;
20306;SDS011;10312;52.434;13.206;2022-08-16T06:17:25;27.27;;;21.13;;
20306;SDS011;10312;52.434;13.206;2022-08-16T06:20:09;25.05;;;20.98;;
20306;SDS011;10312;52.434;13.206;2022-08-16T06:22:51;25.27;;;20.42;;
20306;SDS011;10312;52.434;13.206;2022-08-16T06:25:26;24.77;;;19.00;;
20306;SDS011;10312;52.434;13.206;2022-08-16T06:28:05;23.02;;;18.95;;
20306;SDS011;10312;52.434;13.206;2022-08-16T06:30:37;23.65;;;19.38;;
20306;SDS011;10312;52.434;13.206;2022-08-16T06:33:10;21.70;;;17.88;;
20306;SDS011;10312;52.434;13.206;2022-08-16T06:35:38;22.58;;;19.17;;
20306;SDS011;10312;52.434;13.206;2022-08-16T06:38:08;20.95;;;18.48;;
20306;SDS011;10312;52.434;13.206;2022-08-16T06:40:55;21.90;;;17.77;;
20306;SDS011;10312;52.434;13.206;2022-08-16T06:43:22;20.35;;;17.77;;
20306;SDS011;10312;52.434;13.206;2022-08-16T06:46:00;20.17;;;17.77;;
20306;SDS011;10312;52.434;13.206;2022-08-16T06:48:30;19.73;;;16.90;;
20306;SDS011;10312;52.434;13.206;2022-08-16T06:51:01;23.95;;;19.25;;
20306;SDS011;10312;52.434;13.206;2022-08-16T06:53:31;19.52;;;16.08;;
20306;SDS011;10312;52.434;13.206;2022-08-16T06:56:02;20.27;;;17.30;;
20306;SDS011;10312;52.434;13.206;2022-08-16T06:59:09;18.20;;;15.25;;
20306;SDS011;10312;52.434;13.206;2022-08-16T07:01:45;18.73;;;15.30;;
20306;SDS011;10312;52.434;13.206;2022-08-16T07:04:21;17.83;;;15.48;;
20306;SDS011;10312;52.434;13.206;2022-08-16T07:07:02;15.98;;;14.00;;
20306;SDS011;10312;52.434;13.206;2022-08-16T07:09:31;16.42;;;14.63;;
20306;SDS011;10312;52.434;13.206;2022-08-16T07:11:59;18.05;;;14.82;;
20306;SDS011;10312;52.434;13.206;2022-08-16T07:14:31;17.42;;;14.45;;
20306;SDS011;10312;52.434;13.206;2022-08-16T07:17:01;19.10;;;15.30;;
20306;SDS011;10312;52.434;13.206;2022-08-16T07:19:34;18.17;;;14.40;;
20306;SDS011;10312;52.434;13.206;2022-08-16T07:22:25;20.83;;;15.48;;
20306;SDS011;10312;52.434;13.206;2022-08-16T07:25:10;19.25;;;13.48;;
20306;SDS011;10312;52.434;13.206;2022-08-16T07:27:39;16.92;;;14.93;;
20306;SDS011;10312;52.434;13.206;2022-08-16T07:30:11;24.20;;;15.00;;
20306;SDS011;10312;52.434;13.206;2022-08-16T07:33:01;16.45;;;14.13;;
20306;SDS011;10312;52.434;13.206;2022-08-16T07:35:32;15.98;;;13.75;;
20306;SDS011;10312;52.434;13.206;2022-08-16T07:37:59;20.17;;;13.50;;
20306;SDS011;10312;52.434;13.206;2022-08-16T07:40:36;17.00;;;13.98;;
20306;SDS011;10312;52.434;13.206;2022-08-16T07:43:24;17.17;;;13.10;;
20306;SDS011;10312;52.434;13.206;2022-08-16T07:45:57;17.90;;;12.70;;
20306;SDS011;10312;52.434;13.206;2022-08-16T07:48:28;14.45;;;12.00;;
20306;SDS011;10312;52.434;13.206;2022-08-16T07:50:56;16.17;;;12.40;;
20306;SDS011;10312;52.434;13.206;2022-08-16T07:53:29;15.80;;;13.63;;
20306;SDS011;10312;52.434;13.206;2022-08-16T07:55:57;15.25;;;13.00;;
20306;SDS011;10312;52.434;13.206;2022-08-16T07:58:36;14.90;;;12.50;;
20306;SDS011;10312;52.434;13.206;2022-08-16T08:01:08;15.10;;;12.35;;
20306;SDS011;10312;52.434;13.206;2022-08-16T08:03:42;15.20;;;12.75;;
20306;SDS011;10312;52.434;13.206;2022-08-16T08:06:18;14.68;;;11.77;;
20306;SDS011;10312;52.434;13.206;2022-08-16T08:08:50;16.13;;;12.48;;
20306;SDS011;10312;52.434;13.206;2022-08-16T08:11:23;14.40;;;11.40;;
20306;SDS011;10312;52.434;13.206;2022-08-16T08:13:54;13.60;;;10.95;;
20306;SDS011;10312;52.434;13.206;2022-08-16T08:16:22;12.43;;;11.13;;
20306;SDS011;10312;52.434;13.206;2022-08-16T08:18:58;13.88;;;10.75;;
20306;SDS011;10312;52.434;13.206;2022-08-16T08:21:30;11.48;;;10.13;;
20306;SDS011;10312;52.434;13.206;2022-08-16T08:24:18;13.50;;;10.68;;
20306;SDS011;10312;52.434;13.206;2022-08-16T08:26:46;16.52;;;10.77;;
20306;SDS011;10312;52.434;13.206;2022-08-16T08:29:16;11.40;;;10.27;;
20306;SDS011;10312;52.434;13.206;2022-08-16T08:31:48;10.85;;;9.23;;
20306;SDS011;10312;52.434;13.206;2022-08-16T08:34:17;10.73;;;9.63;;
20306;SDS011;10312;52.434;13.206;2022-08-16T08:36:44;11.10;;;9.90;;
20306;SDS011;10312;52.434;13.206;2022-08-16T08:39:36;14.32;;;9.88;;
20306;SDS011;10312;52.434;13.206;2022-08-16T08:42:20;11.50;;;9.50;;
20306;SDS011;10312;52.434;13.206;2022-08-16T08:44:52;11.98;;;9.25;;
20306;SDS011;10312;52.434;13.206;2022-08-16T08:47:20;12.90;;;9.18;;
20306;SDS011;10312;52.434;13.206;2022-08-16T08:49:49;11.52;;;9.57;;
20306;SDS011;10312;52.434;13.206;2022-08-16T08:52:23;10.30;;;8.95;;
20306;SDS011;10312;52.434;13.206;2022-08-16T08:55:01;13.23;;;9.43;;
20306;SDS011;10312;52.434;13.206;2022-08-16T08:57:38;13.38;;;10.23;;
20306;SDS011;10312;52.434;13.206;2022-08-16T09:00:26;15.63;;;9.70;;
20306;SDS011;10312;52.434;13.206;2022-08-16T09:02:58;12.32;;;8.95;;
20306;SDS011;10312;52.434;13.206;2022-08-16T09:05:36;12.05;;;9.25;;
20306;SDS011;10312;52.434;13.206;2022-08-16T09:08:06;9.60;;;8.68;;
20306;SDS011;10312;52.434;13.206;2022-08-16T09:10:52;10.00;;;8.70;;
20306;SDS011;10312;52.434;13.206;2022-08-16T09:13:28;11.57;;;8.80;;
20306;SDS011;10312;52.434;13.206;2022-08-16T09:15:58;9.45;;;7.43;;
20306;SDS011;10312;52.434;13.206;2022-08-16T09:18:25;10.40;;;8.65;;
20306;SDS011;10312;52.434;13.206;2022-08-16T09:21:03;11.65;;;8.85;;
20306;SDS011;10312;52.434;13.206;2022-08-16T09:23:35;9.10;;;7.70;;
20306;SDS011;10312;52.434;13.206;2022-08-16T09:26:05;9.63;;;8.15;;
20306;SDS011;10312;52.434;13.206;2022-08-16T09:28:53;15.57;;;7.50;;
20306;SDS011;10312;52.434;13.206;2022-08-16T09:31:40;9.90;;;7.10;;
20306;SDS011;10312;52.434;13.206;2022-08-16T09:34:07;7.97;;;6.70;;
20306;SDS011;10312;52.434;13.206;2022-08-16T09:36:36;10.13;;;6.85;;
20306;SDS011;10312;52.434;13.206;2022-08-16T09:39:11;8.98;;;6.28;;
20306;SDS011;10312;52.434;13.206;2022-08-16T09:41:42;8.35;;;6.15;;
20306;SDS011;10312;52.434;13.206;2022-08-16T09:44:20;12.13;;;5.95;;
20306;SDS011;10312;52.434;13.206;2022-08-16T09:47:10;9.10;;;5.13;;
20306;SDS011;10312;52.434;13.206;2022-08-16T09:49:37;10.63;;;6.28;;
20306;SDS011;10312;52.434;13.206;2022-08-16T09:52:07;7.47;;;5.97;;
20306;SDS011;10312;52.434;13.206;2022-08-16T09:54:35;8.70;;;5.80;;
20306;SDS011;10312;52.434;13.206;2022-08-16T09:57:03;8.52;;;5.93;;
20306;SDS011;10312;52.434;13.206;2022-08-16T09:59:30;8.95;;;5.97;;
20306;SDS011;10312;52.434;13.206;2022-08-16T10:02:04;7.55;;;5.78;;
20306;SDS011;10312;52.434;13.206;2022-08-16T10:04:52;9.35;;;6.03;;
20306;SDS011;10312;52.434;13.206;2022-08-16T10:07:21;8.07;;;5.70;;
20306;SDS011;10312;52.434;13.206;2022-08-16T10:09:49;9.15;;;6.38;;
20306;SDS011;10312;52.434;13.206;2022-08-16T10:12:22;11.07;;;5.82;;
20306;SDS011;10312;52.434;13.206;2022-08-16T10:15:10;8.20;;;5.93;;
20306;SDS011;10312;52.434;13.206;2022-08-16T10:17:43;10.27;;;5.90;;
20306;SDS011;10312;52.434;13.206;2022-08-16T10:20:28;10.55;;;6.10;;
20306;SDS011;10312;52.434;13.206;2022-08-16T10:22:57;7.40;;;6.65;;
20306;SDS011;10312;52.434;13.206;2022-08-16T10:25:31;9.00;;;6.47;;
20306;SDS011;10312;52.434;13.206;2022-08-16T10:28:19;7.53;;;6.68;;
20306;SDS011;10312;52.434;13.206;2022-08-16T10:30:54;10.88;;;7.55;;
20306;SDS011;10312;52.434;13.206;2022-08-16T10:33:24;8.13;;;6.72;;
20306;SDS011;10312;52.434;13.206;2022-08-16T10:35:55;10.52;;;6.90;;
20306;SDS011;10312;52.434;13.206;2022-08-16T10:38:28;8.93;;;6.32;;
20306;SDS011;10312;52.434;13.206;2022-08-16T10:40:58;7.78;;;6.32;;
20306;SDS011;10312;52.434;13.206;2022-08-16T10:43:26;11.50;;;6.93;;
20306;SDS011;10312;52.434;13.206;2022-08-16T10:45:56;10.40;;;7.00;;
20306;SDS011;10312;52.434;13.206;2022-08-16T10:48:27;9.98;;;6.90;;
20306;SDS011;10312;52.434;13.206;2022-08-16T10:50:55;10.00;;;6.95;;
20306;SDS011;10312;52.434;13.206;2022-08-16T10:53:29;7.53;;;6.72;;
20306;SDS011;10312;52.434;13.206;2022-08-16T10:55:59;8.95;;;7.05;;
20306;SDS011;10312;52.434;13.206;2022-08-16T10:58:28;9.02;;;6.72;;
20306;SDS011;10312;52.434;13.206;2022-08-16T11:01:00;8.45;;;6.80;;
20306;SDS011;10312;52.434;13.206;2022-08-16T11:03:54;8.60;;;6.95;;
20306;SDS011;10312;52.434;13.206;2022-08-16T11:06:23;10.90;;;7.13;;
20306;SDS011;10312;52.434;13.206;2022-08-16T11:08:54;8.55;;;6.80;;
20306;SDS011;10312;52.434;13.206;2022-08-16T11:11:42;8.18;;;6.15;;
20306;SDS011;10312;52.434;13.206;2022-08-16T11:14:29;10.02;;;6.15;;
20306;SDS011;10312;52.434;13.206;2022-08-16T11:16:57;11.50;;;6.95;;
20306;SDS011;10312;52.434;13.206;2022-08-16T11:19:34;6.53;;;5.32;;
20306;SDS011;10312;52.434;13.206;2022-08-16T11:22:21;5.90;;;4.93;;
20306;SDS011;10312;52.434;13.206;2022-08-16T11:25:08;6.68;;;5.20;;
20306;SDS011;10312;52.434;13.206;2022-08-16T11:27:38;8.05;;;5.07;;
20306;SDS011;10312;52.434;13.206;2022-08-16T11:30:05;7.82;;;5.10;;
20306;SDS011;10312;52.434;13.206;2022-08-16T11:32:37;7.43;;;4.80;;
20306;SDS011;10312;52.434;13.206;2022-08-16T11:35:07;7.32;;;4.70;;
20306;SDS011;10312;52.434;13.206;2022-08-16T11:37:45;6.13;;;4.60;;
20306;SDS011;10312;52.434;13.206;2022-08-16T11:40:52;5.85;;;4.65;;
20306;SDS011;10312;52.434;13.206;2022-08-16T11:43:31;6.93;;;4.50;;
20306;SDS011;10312;52.434;13.206;2022-08-16T11:46:00;6.88;;;4.70;;
20306;SDS011;10312;52.434;13.206;2022-08-16T11:48:49;6.68;;;4.85;;
20306;SDS011;10312;52.434;13.206;2022-08-16T11:51:17;6.75;;;4.22;;
20306;SDS011;10312;52.434;13.206;2022-08-16T11:53:44;7.57;;;4.78;;
20306;SDS011;10312;52.434;13.206;2022-08-16T11:56:11;5.03;;;4.30;;
20306;SDS011;10312;52.434;13.206;2022-08-16T11:58:40;5.78;;;4.60;;
20306;SDS011;10312;52.434;13.206;2022-08-16T12:01:07;8.10;;;4.50;;
20306;SDS011;10312;52.434;13.206;2022-08-16T12:03:36;5.93;;;4.10;;
20306;SDS011;10312;52.434;13.206;2022-08-16T12:06:15;5.90;;;3.85;;
20306;SDS011;10312;52.434;13.206;2022-08-16T12:08:56;9.30;;;4.57;;
20306;SDS011;10312;52.434;13.206;2022-08-16T12:11:27;6.72;;;3.92;;
20306;SDS011;10312;52.434;13.206;2022-08-16T12:13:58;7.93;;;4.60;;
20306;SDS011;10312;52.434;13.206;2022-08-16T12:16:30;7.70;;;4.15;;
20306;SDS011;10312;52.434;13.206;2022-08-16T12:19:00;7.20;;;3.80;;
20306;SDS011;10312;52.434;13.206;2022-08-16T12:21:29;4.47;;;4.00;;
20306;SDS011;10312;52.434;13.206;2022-08-16T12:24:16;4.80;;;3.80;;
20306;SDS011;10312;52.434;13.206;2022-08-16T12:26:43;6.15;;;3.88;;
20306;SDS011;10312;52.434;13.206;2022-08-16T12:29:10;4.80;;;3.75;;
20306;SDS011;10312;52.434;13.206;2022-08-16T12:31:37;4.90;;;3.97;;
20306;SDS011;10312;52.434;13.206;2022-08-16T12:34:24;6.45;;;4.13;;
20306;SDS011;10312;52.434;13.206;2022-08-16T12:36:54;5.65;;;4.15;;
20306;SDS011;10312;52.434;13.206;2022-08-16T12:39:22;4.85;;;3.65;;
20306;SDS011;10312;52.434;13.206;2022-08-16T12:41:54;5.15;;;3.72;;
20306;SDS011;10312;52.434;13.206;2022-08-16T12:44:22;7.07;;;3.55;;
20306;SDS011;10312;52.434;13.206;2022-08-16T12:46:51;5.85;;;4.20;;
20306;SDS011;10312;52.434;13.206;2022-08-16T12:49:40;5.95;;;4.00;;
20306;SDS011;10312;52.434;13.206;2022-08-16T12:52:07;5.15;;;4.20;;
20306;SDS011;10312;52.434;13.206;2022-08-16T12:54:53;6.68;;;3.90;;
20306;SDS011;10312;52.434;13.206;2022-08-16T12:57:21;5.20;;;3.90;;
20306;SDS011;10312;52.434;13.206;2022-08-16T13:00:03;5.50;;;4.03;;
20306;SDS011;10312;52.434;13.206;2022-08-16T13:02:32;5.25;;;3.88;;
20306;SDS011;10312;52.434;13.206;2022-08-16T13:05:05;4.25;;;3.50;;
20306;SDS011;10312;52.434;13.206;2022-08-16T13:07:33;5.63;;;3.38;;
20306;SDS011;10312;52.434;13.206;2022-08-16T13:10:11;4.95;;;3.38;;
20306;SDS011;10312;52.434;13.206;2022-08-16T13:12:59;7.93;;;3.40;;
20306;SDS011;10312;52.434;13.206;2022-08-16T13:15:26;4.25;;;3.03;;
20306;SDS011;10312;52.434;13.206;2022-08-16T13:17:55;5.15;;;3.40;;
20306;SDS011;10312;52.434;13.206;2022-08-16T13:20:24;5.03;;;3.30;;
20306;SDS011;10312;52.434;13.206;2022-08-16T13:22:59;6.00;;;3.10;;
20306;SDS011;10312;52.434;13.206;2022-08-16T13:25:29;7.47;;;3.33;;
20306;SDS011;10312;52.434;13.206;2022-08-16T13:27:58;6.60;;;3.50;;
20306;SDS011;10312;52.434;13.206;2022-08-16T13:30:40;5.30;;;3.53;;
20306;SDS011;10312;52.434;13.206;2022-08-16T13:33:12;5.70;;;3.60;;
20306;SDS011;10312;52.434;13.206;2022-08-16T13:35:50;7.68;;;3.33;;
20306;SDS011;10312;52.434;13.206;2022-08-16T13:38:26;5.22;;;3.47;;
20306;SDS011;10312;52.434;13.206;2022-08-16T13:41:03;6.72;;;3.55;;
20306;SDS011;10312;52.434;13.206;2022-08-16T13:43:34;5.28;;;3.15;;
20306;SDS011;10312;52.434;13.206;2022-08-16T13:46:03;6.88;;;3.40;;
20306;SDS011;10312;52.434;13.206;2022-08-16T13:48:31;3.95;;;2.90;;
20306;SDS011;10312;52.434;13.206;2022-08-16T13:51:09;3.83;;;3.10;;
20306;SDS011;10312;52.434;13.206;2022-08-16T13:53:46;5.40;;;3.30;;
20306;SDS011;10312;52.434;13.206;2022-08-16T13:56:25;4.47;;;3.55;;
20306;SDS011;10312;52.434;13.206;2022-08-16T13:59:09;3.97;;;3.55;;
20306;SDS011;10312;52.434;13.206;2022-08-16T14:01:47;5.65;;;3.75;;
20306;SDS011;10312;52.434;13.206;2022-08-16T14:04:26;3.60;;;3.25;;
20306;SDS011;10312;52.434;13.206;2022-08-16T14:06:57;5.50;;;3.55;;
20306;SDS011;10312;52.434;13.206;2022-08-16T14:09:25;5.53;;;3.78;;
20306;SDS011;10312;52.434;13.206;2022-08-16T14:11:54;6.60;;;3.33;;
20306;SDS011;10312;52.434;13.206;2022-08-16T14:14:23;5.32;;;3.78;;
20306;SDS011;10312;52.434;13.206;2022-08-16T14:16:55;5.90;;;3.50;;
20306;SDS011;10312;52.434;13.206;2022-08-16T14:19:27;4.43;;;3.33;;
20306;SDS011;10312;52.434;13.206;2022-08-16T14:21:56;5.00;;;3.97;;
20306;SDS011;10312;52.434;13.206;2022-08-16T14:24:45;6.85;;;3.58;;
20306;SDS011;10312;52.434;13.206;2022-08-16T14:27:15;6.72;;;3.50;;
20306;SDS011;10312;52.434;13.206;2022-08-16T14:29:44;5.35;;;3.35;;
20306;SDS011;10312;52.434;13.206;2022-08-16T14:32:15;6.22;;;3.45;;
20306;SDS011;10312;52.434;13.206;2022-08-16T14:34:59;4.90;;;3.25;;
20306;SDS011;10312;52.434;13.206;2022-08-16T14:37:34;7.40;;;3.70;;
20306;SDS011;10312;52.434;13.206;2022-08-16T14:40:03;4.55;;;3.40;;
20306;SDS011;10312;52.434;13.206;2022-08-16T14:42:31;7.30;;;3.55;;
20306;SDS011;10312;52.434;13.206;2022-08-16T14:45:02;5.20;;;3.63;;
20306;SDS011;10312;52.434;13.206;2022-08-16T14:47:30;4.40;;;3.58;;
20306;SDS011;10312;52.434;13.206;2022-08-16T14:50:00;8.30;;;3.65;;
20306;SDS011;10312;52.434;13.206;2022-08-16T14:52:27;4.18;;;3.47;;
20306;SDS011;10312;52.434;13.206;2022-08-16T14:55:14;4.47;;;3.70;;
20306;SDS011;10312;52.434;13.206;2022-08-16T14:57:41;5.35;;;3.83;;
20306;SDS011;10312;52.434;13.206;2022-08-16T15:00:10;5.93;;;3.67;;
20306;SDS011;10312;52.434;13.206;2022-08-16T15:02:41;5.13;;;3.42;;
20306;SDS011;10312;52.434;13.206;2022-08-16T15:05:09;5.80;;;3.20;;